Birgit G. — V2QD5 — position and weather

sailwx.info

Track history (hours):
 
Tides and Currents Weather Stations Pressure Air Temp Water Temp Dewpoint Dewpoint Depression Visibility Wind Speed Wind Dir Waves Ship Positions

Birgit G.

Last reported at 2017-Dec-17 02:57 UTC. Time now 2017-Dec-17 16:01 UTC.
Position N 59°46' E 024°16'.

Length 89 m; draft 5.3 m.

Type: Ship. MMSI: 305502000.

Date/timePositionNaut miles runAvg speedWind from/ knotsBaromVisibWave heightAir tempDewpointWater temp
2017-Dec-17 02:57N 59°46' E 024°16'510.6
2017-Dec-17 02:30N 59°47' E 024°25'510.4
2017-Dec-17 02:00N 59°49' E 024°35'510.6
2017-Dec-17 01:30N 59°50' E 024°45'510.6
2017-Dec-17 01:00N 59°51' E 024°56'510.4
2017-Dec-17 00:30N 59°52' E 025°06'510.2
2017-Dec-17 00:00N 59°53' E 025°16'510.3
2017-Dec-16 23:30N 59°54' E 025°26'2410.2
2017-Dec-16 21:11N 59°59' E 026°12'210.0
2017-Dec-16 21:00N 59°59' E 026°15'510.1
2017-Dec-16 20:30N 60°00' E 026°25'510.1
2017-Dec-16 20:00N 60°01' E 026°35'510.1
2017-Dec-16 19:30N 60°01' E 026°45'510.0
2017-Dec-16 19:00N 60°00' E 026°55'5 9.7
2017-Dec-16 18:30N 60°00' E 027°05'510.1
2017-Dec-16 18:00N 60°03' E 027°14'5 9.9
2017-Dec-16 17:30N 60°05' E 027°22'5 9.9
2017-Dec-16 17:00N 60°08' E 027°30'5 9.8
2017-Dec-16 16:30N 60°10' E 027°39'5 9.6
2017-Dec-16 16:00N 60°12' E 027°48'510.2
2017-Dec-16 15:30N 60°11' E 027°59'510.2
2017-Dec-16 15:00N 60°09' E 028°08'510.1
2017-Dec-16 14:30N 60°07' E 028°18'510.3
2017-Dec-16 14:00N 60°04' E 028°26'510.0
2017-Dec-16 13:30N 60°03' E 028°36'510.2
2017-Dec-16 13:00N 60°03' E 028°46'510.2
2017-Dec-16 12:30N 60°03' E 028°56'1710.2
2017-Dec-16 10:51N 60°02' E 029°30'310.2
2017-Dec-16 10:30N 60°00' E 029°37'510.3
2017-Dec-16 10:00N 59°59' E 029°46'510.1
2017-Dec-16 09:30N 59°56' E 029°55'510.2
2017-Dec-16 09:00N 59°54' E 030°05'4 7.2
2017-Dec-16 08:30N 59°53' E 030°11'1 2.3
2017-Dec-16 08:00N 59°52' E 030°13'0 0.0
2017-Dec-16 07:30N 59°52' E 030°13'0 0.0
2017-Dec-16 07:00N 59°52' E 030°13'0 0.0
2017-Dec-16 06:30N 59°52' E 030°13'0 0.0
2017-Dec-16 06:00N 59°52' E 030°13'0 0.0
2017-Dec-16 05:30N 59°52' E 030°13'0 0.0
2017-Dec-16 05:00N 59°52' E 030°13'0 0.0
2017-Dec-16 04:30N 59°52' E 030°13'0 0.0
2017-Dec-16 04:00N 59°52' E 030°13'0 0.0
2017-Dec-16 03:30N 59°52' E 030°13'0 0.0
2017-Dec-16 03:00N 59°52' E 030°13'0 0.0
2017-Dec-16 02:30N 59°52' E 030°13'0 0.0
2017-Dec-16 02:00N 59°52' E 030°13'0 0.0
2017-Dec-16 01:30N 59°52' E 030°13'0 0.0
2017-Dec-16 01:00N 59°52' E 030°13'0 0.0
2017-Dec-16 00:30N 59°52' E 030°13'0 0.0
2017-Dec-16 00:00N 59°52' E 030°13'0 0.0
2017-Dec-15 23:30N 59°52' E 030°13'0 0.0
2017-Dec-15 23:00N 59°52' E 030°13'0 0.0
2017-Dec-15 22:30N 59°52' E 030°13'0 0.0
2017-Dec-15 22:00N 59°52' E 030°13'0 0.0
2017-Dec-15 21:30N 59°52' E 030°13'0 0.0
2017-Dec-15 21:00N 59°52' E 030°13'0 0.0
2017-Dec-15 20:30N 59°52' E 030°13'0 0.0
2017-Dec-15 20:00N 59°52' E 030°13'0 0.0
2017-Dec-15 19:30N 59°52' E 030°13'0 0.0
2017-Dec-15 19:00N 59°52' E 030°13'0 0.0
2017-Dec-15 18:30N 59°52' E 030°13'0 0.0
2017-Dec-15 18:00N 59°52' E 030°13'0 0.0
2017-Dec-15 17:30N 59°52' E 030°13'0 0.0
2017-Dec-15 17:00N 59°52' E 030°13'0 0.0
2017-Dec-15 16:30N 59°52' E 030°13'0 0.0
2017-Dec-15 16:00N 59°52' E 030°13'0 0.0
2017-Dec-15 15:30N 59°52' E 030°13'0 0.0
2017-Dec-15 15:00N 59°52' E 030°13'0 0.0
2017-Dec-15 14:30N 59°52' E 030°13'0 0.0
2017-Dec-15 14:00N 59°52' E 030°13'0 0.0
2017-Dec-15 13:30N 59°52' E 030°13'0 0.0
2017-Dec-15 13:00N 59°52' E 030°13'0 0.0
2017-Dec-15 12:30N 59°52' E 030°13'0 0.0
2017-Dec-15 12:00N 59°52' E 030°13'0 0.0
2017-Dec-15 11:30N 59°52' E 030°13'0 0.0
2017-Dec-15 11:00N 59°52' E 030°13'0 0.0
2017-Dec-15 10:30N 59°52' E 030°13'0 0.0
2017-Dec-15 10:00N 59°52' E 030°13'0 0.0
2017-Dec-15 09:30N 59°52' E 030°13'0 0.0
2017-Dec-15 09:00N 59°52' E 030°13'0 0.0
2017-Dec-15 08:30N 59°52' E 030°13'0 0.0
2017-Dec-15 08:00N 59°52' E 030°13'0 0.0
2017-Dec-15 07:30N 59°52' E 030°13'0 0.0
2017-Dec-15 07:00N 59°52' E 030°13'0 0.0
2017-Dec-15 06:30N 59°52' E 030°13'0 0.0
2017-Dec-15 06:00N 59°52' E 030°13'0 0.0
2017-Dec-15 05:30N 59°52' E 030°13'0 0.0
2017-Dec-15 05:00N 59°52' E 030°13'0 0.0
2017-Dec-15 04:30N 59°52' E 030°13'0 0.0
2017-Dec-15 04:00N 59°52' E 030°13'0 0.0
2017-Dec-15 02:30N 59°52' E 030°13'0 0.0
2017-Dec-15 01:00N 59°52' E 030°13'0 0.0
2017-Dec-15 00:30N 59°52' E 030°13'0 0.0
2017-Dec-14 18:31N 59°52' E 030°13'0 0.0
2017-Dec-14 18:00N 59°52' E 030°13'0 0.0
2017-Dec-14 17:30N 59°52' E 030°13'0 0.0
2017-Dec-14 17:00N 59°52' E 030°13'0 0.0
2017-Dec-14 16:30N 59°52' E 030°13'0 0.0
2017-Dec-14 16:00N 59°52' E 030°13'0 0.0
2017-Dec-14 15:00N 59°52' E 030°13'0 0.0
2017-Dec-14 14:30N 59°52' E 030°13'0 0.0
2017-Dec-14 14:00N 59°52' E 030°13'0 0.0
2017-Dec-14 13:30N 59°52' E 030°13'0 0.0
2017-Dec-14 13:00N 59°52' E 030°13'0 0.0
2017-Dec-14 12:30N 59°52' E 030°13'0 0.0
2017-Dec-14 12:00N 59°52' E 030°13'0 0.1
2017-Dec-14 11:30N 59°52' E 030°13'0 0.1
2017-Dec-14 11:00N 59°52' E 030°13'0 0.0
2017-Dec-14 10:30N 59°52' E 030°13'0 0.0
2017-Dec-14 10:00N 59°52' E 030°13'0 0.0
2017-Dec-14 09:30N 59°52' E 030°13'0 0.0
2017-Dec-14 09:00N 59°52' E 030°13'0 0.0
2017-Dec-14 08:30N 59°52' E 030°13'0 0.0
2017-Dec-14 08:00N 59°52' E 030°13'0 0.0
2017-Dec-14 07:30N 59°52' E 030°13'0 0.0
2017-Dec-14 07:00N 59°52' E 030°13'0 0.0
2017-Dec-14 06:30N 59°52' E 030°13'0 0.0
2017-Dec-14 06:00N 59°52' E 030°13'0 0.0
2017-Dec-14 05:30N 59°52' E 030°13'0 0.0
2017-Dec-14 05:00N 59°52' E 030°13'0 0.0
2017-Dec-14 04:30N 59°52' E 030°13'0 0.0
2017-Dec-14 04:00N 59°52' E 030°13'0 0.0
2017-Dec-14 03:31N 59°52' E 030°13'0 0.0
2017-Dec-14 03:00N 59°52' E 030°13'0 0.0
2017-Dec-14 02:30N 59°52' E 030°13'0 0.0
2017-Dec-14 02:00N 59°52' E 030°13'0 0.0
2017-Dec-14 01:30N 59°52' E 030°13'0 0.0
2017-Dec-14 01:00N 59°52' E 030°13'0 0.0
2017-Dec-14 00:30N 59°52' E 030°13'0 0.0
2017-Dec-14 00:00N 59°52' E 030°13'0 0.0
2017-Dec-13 23:30N 59°52' E 030°13'0 0.0
2017-Dec-13 23:00N 59°52' E 030°13'0 0.0
2017-Dec-13 22:30N 59°52' E 030°13'0 0.0
2017-Dec-13 22:00N 59°52' E 030°13'0 0.0
2017-Dec-13 21:30N 59°52' E 030°13'0 0.0
2017-Dec-13 21:00N 59°52' E 030°13'0 0.0
2017-Dec-13 20:30N 59°52' E 030°13'0 0.0
2017-Dec-13 20:01N 59°52' E 030°13'0 0.0
2017-Dec-13 19:30N 59°52' E 030°13'0 0.0
2017-Dec-13 19:00N 59°52' E 030°13'0 0.0
2017-Dec-13 18:30N 59°52' E 030°13'0 0.0
2017-Dec-13 18:00N 59°52' E 030°13'0 0.0
2017-Dec-13 17:30N 59°52' E 030°13'0 0.0
2017-Dec-13 17:00N 59°52' E 030°13'0 0.0
2017-Dec-13 16:30N 59°52' E 030°13'0 0.0
2017-Dec-13 16:00N 59°52' E 030°13'0 0.0
2017-Dec-13 15:30N 59°52' E 030°13'0 0.0
2017-Dec-13 15:00N 59°52' E 030°13'0 0.0
2017-Dec-13 14:30N 59°52' E 030°13'0 0.0
2017-Dec-13 14:00N 59°52' E 030°13'0 0.0
2017-Dec-13 13:30N 59°52' E 030°13'0 0.0
2017-Dec-13 13:00N 59°52' E 030°13'0 0.0
2017-Dec-13 12:30N 59°52' E 030°13'0 0.0
2017-Dec-13 12:00N 59°52' E 030°13'0 0.0
2017-Dec-13 11:30N 59°52' E 030°13'0 0.0
2017-Dec-13 11:00N 59°52' E 030°13'0 0.0
2017-Dec-13 10:30N 59°52' E 030°13'0 0.0
2017-Dec-13 10:00N 59°52' E 030°13'0 0.0
2017-Dec-13 09:30N 59°52' E 030°13'0 0.0
2017-Dec-13 09:00N 59°52' E 030°13'0 0.0
2017-Dec-13 08:30N 59°52' E 030°13'0 0.0
2017-Dec-13 08:00N 59°52' E 030°13'0 0.0
2017-Dec-13 07:30N 59°52' E 030°13'0 0.0
2017-Dec-13 07:00N 59°52' E 030°13'0 0.0
2017-Dec-13 06:30N 59°52' E 030°13'0 0.0
2017-Dec-13 06:00N 59°52' E 030°13'0 0.0
2017-Dec-13 05:30N 59°52' E 030°13'0 0.0
2017-Dec-13 05:00N 59°52' E 030°13'0 0.0
2017-Dec-13 04:30N 59°52' E 030°13'0 0.0
2017-Dec-13 04:00N 59°52' E 030°13'0 0.0
2017-Dec-13 03:30N 59°52' E 030°13'0 0.0
2017-Dec-13 03:00N 59°52' E 030°13'0 0.0
2017-Dec-13 02:30N 59°52' E 030°13'0 0.0
2017-Dec-13 02:00N 59°52' E 030°13'0 0.0
2017-Dec-13 01:30N 59°52' E 030°13'0 0.0
2017-Dec-13 01:00N 59°52' E 030°13'0 0.0
2017-Dec-13 00:30N 59°52' E 030°13'0 0.0
2017-Dec-13 00:00N 59°52' E 030°13'0 0.0
2017-Dec-12 23:30N 59°52' E 030°13'0 0.0
2017-Dec-12 23:00N 59°52' E 030°13'0 0.0
2017-Dec-12 22:30N 59°52' E 030°13'0 0.0
2017-Dec-12 22:00N 59°52' E 030°13'0 0.0
2017-Dec-12 21:30N 59°52' E 030°13'0 0.0
2017-Dec-12 21:00N 59°52' E 030°13'0 0.0
2017-Dec-12 20:30N 59°52' E 030°13'0 0.0
2017-Dec-12 20:00N 59°52' E 030°13'0 0.0
2017-Dec-12 19:30N 59°52' E 030°13'0 0.0
2017-Dec-12 19:00N 59°52' E 030°13'0 0.0
2017-Dec-12 18:30N 59°52' E 030°13'0 0.0
2017-Dec-12 18:00N 59°52' E 030°13'0 0.0
2017-Dec-12 17:30N 59°52' E 030°13'0 0.0
2017-Dec-12 17:00N 59°52' E 030°13'0 0.0
2017-Dec-12 16:30N 59°52' E 030°13'0 0.0
2017-Dec-12 16:00N 59°52' E 030°13'0 0.0
2017-Dec-12 15:30N 59°52' E 030°13'1 1.0
2017-Dec-12 15:00N 59°52' E 030°12'3 5.7
2017-Dec-12 14:30N 59°54' E 030°07'5 9.4
2017-Dec-12 14:00N 59°56' E 029°58'510.1
2017-Dec-12 13:30N 59°58' E 029°49'5 9.4
2017-Dec-12 13:00N 59°60' E 029°41'15 9.7
2017-Dec-12 11:25N 60°02' E 029°10'410.1
2017-Dec-12 11:00N 60°02' E 029°02'510.3
2017-Dec-12 10:30N 60°02' E 028°51'510.8
2017-Dec-12 10:00N 60°02' E 028°41'611.4
2017-Dec-12 09:30N 60°03' E 028°29'5 9.6
2017-Dec-12 09:00N 60°05' E 028°21'5 9.4
2017-Dec-12 08:30N 60°08' E 028°13'5 9.5
2017-Dec-12 08:01N 60°09' E 028°04'5 9.9
2017-Dec-12 07:30N 60°10' E 027°54'5 9.7
2017-Dec-12 07:00N 60°11' E 027°44'5 9.2
2017-Dec-12 06:30N 60°08' E 027°37'611.4
2017-Dec-12 06:00N 60°05' E 027°27'510.3
2017-Dec-12 05:31N 60°02' E 027°18'611.7
2017-Dec-12 05:00N 59°59' E 027°09'5 9.3
2017-Dec-12 04:31N 59°58' E 026°60'5 9.5
2017-Dec-12 04:00N 59°59' E 026°50'510.6
2017-Dec-12 03:30N 59°59' E 026°40'510.5
2017-Dec-12 03:00N 59°58' E 026°30'611.3
2017-Dec-12 02:30N 59°56' E 026°19'2511.0
2017-Dec-12 00:13N 59°49' E 025°31'311.1
2017-Dec-11 23:57N 59°48' E 025°26'511.2
2017-Dec-11 23:30N 59°47' E 025°16'611.3
2017-Dec-11 23:00N 59°45' E 025°05'612.3
2017-Dec-11 22:31N 59°43' E 024°54'611.6
2017-Dec-11 22:00N 59°42' E 024°42'5 9.6
2017-Dec-11 21:30N 59°40' E 024°33'612.4
2017-Dec-11 21:00N 59°35' E 024°26'510.1
2017-Dec-11 20:30N 59°31' E 024°31'3 5.2
2017-Dec-11 20:00N 59°29' E 024°35'0 0.1
2017-Dec-11 19:28N 59°29' E 024°35'0 0.0
2017-Dec-11 18:58N 59°29' E 024°35'0 0.1
2017-Dec-11 18:28N 59°29' E 024°35'0 0.0
2017-Dec-11 17:58N 59°29' E 024°35'0 0.0
2017-Dec-11 17:28N 59°29' E 024°35'1 1.3
2017-Dec-11 17:00N 59°29' E 024°34'5 9.6
2017-Dec-11 16:30N 59°30' E 024°25'510.9
2017-Dec-11 16:00N 59°30' E 024°14'510.6
2017-Dec-11 15:30N 59°30' E 024°04'18010.7
2017-Dec-10 22:41N 58°42' E 018°25'411.0
2017-Dec-10 22:21N 58°42' E 018°18'411.2
2017-Dec-10 22:00N 58°41' E 018°11'611.5
2017-Dec-10 21:30N 58°40' E 018°00'611.5
2017-Dec-10 20:58N 58°39' E 017°49'1311.4
2017-Dec-10 19:52N 58°37' E 017°25'411.4
2017-Dec-10 19:30N 58°37' E 017°17'611.2
2017-Dec-10 19:00N 58°38' E 017°06'611.0
2017-Dec-10 18:30N 58°36' E 016°56'611.5
2017-Dec-10 18:00N 58°37' E 016°45'510.9
2017-Dec-10 17:31N 58°38' E 016°35'510.9
2017-Dec-10 17:00N 58°39' E 016°24'510.0
2017-Dec-10 16:30N 58°37' E 016°15'2 3.7
2017-Dec-10 16:00N 58°37' E 016°12'0 0.7
2017-Dec-10 15:30N 58°36' E 016°12'0 0.0
2017-Dec-10 14:58N 58°36' E 016°12'0 0.0
2017-Dec-10 14:28N 58°36' E 016°12'0 0.0
2017-Dec-10 13:58N 58°36' E 016°12'0 0.0
2017-Dec-10 13:28N 58°36' E 016°12'0 0.0
2017-Dec-10 12:58N 58°36' E 016°12'0 0.1
2017-Dec-10 12:28N 58°36' E 016°12'0 0.1
2017-Dec-10 11:58N 58°36' E 016°12'0 0.0
2017-Dec-10 11:28N 58°36' E 016°12'0 0.0
2017-Dec-10 10:58N 58°36' E 016°12'0 0.0
2017-Dec-10 10:28N 58°36' E 016°12'0 0.0
2017-Dec-10 09:58N 58°36' E 016°12'0 0.0
2017-Dec-10 09:28N 58°36' E 016°12'0 0.0
2017-Dec-10 08:58N 58°36' E 016°12'0 0.0
2017-Dec-10 08:28N 58°36' E 016°12'0 0.0
2017-Dec-10 07:58N 58°36' E 016°11'0 0.0
2017-Dec-10 07:28N 58°36' E 016°11'0 0.0
2017-Dec-10 06:58N 58°36' E 016°11'0 0.0
2017-Dec-10 06:28N 58°36' E 016°12'0 0.0
2017-Dec-10 05:58N 58°36' E 016°12'0 0.0
2017-Dec-10 05:28N 58°36' E 016°12'0 0.0
2017-Dec-10 04:58N 58°36' E 016°11'0 0.0
2017-Dec-10 04:28N 58°36' E 016°11'0 0.0
2017-Dec-10 03:58N 58°36' E 016°12'0 0.0
2017-Dec-10 03:28N 58°36' E 016°12'0 0.0
2017-Dec-10 02:58N 58°36' E 016°11'0 0.0
2017-Dec-10 02:28N 58°36' E 016°12'0 0.0
2017-Dec-10 01:58N 58°36' E 016°12'0 0.0
2017-Dec-10 01:28N 58°36' E 016°12'0 0.0
2017-Dec-10 00:58N 58°36' E 016°12'0 0.0
2017-Dec-10 00:28N 58°36' E 016°12'0 0.0
2017-Dec-09 23:58N 58°36' E 016°11'0 0.0
2017-Dec-09 23:28N 58°36' E 016°12'0 0.0
2017-Dec-09 22:58N 58°36' E 016°12'0 0.0
2017-Dec-09 22:28N 58°36' E 016°12'0 0.0
2017-Dec-09 21:58N 58°36' E 016°12'0 0.0
2017-Dec-09 21:28N 58°36' E 016°12'0 0.0
2017-Dec-09 20:58N 58°36' E 016°12'0 0.0
2017-Dec-09 20:28N 58°36' E 016°12'0 0.0
2017-Dec-09 19:58N 58°36' E 016°11'0 0.0
2017-Dec-09 19:28N 58°36' E 016°11'0 0.0
2017-Dec-09 18:58N 58°36' E 016°12'0 0.0
2017-Dec-09 18:28N 58°36' E 016°11'0 0.0
2017-Dec-09 17:58N 58°36' E 016°12'0 0.0
2017-Dec-09 17:28N 58°36' E 016°12'0 0.0
2017-Dec-09 16:55N 58°36' E 016°11'0 0.0
2017-Dec-09 16:28N 58°36' E 016°11'0 0.0
2017-Dec-09 15:58N 58°36' E 016°11'0 0.0
2017-Dec-09 15:28N 58°36' E 016°11'0 0.0
2017-Dec-09 14:58N 58°36' E 016°12'0 0.0
2017-Dec-09 14:28N 58°36' E 016°12'0 0.0
2017-Dec-09 13:58N 58°36' E 016°12'0 0.0
2017-Dec-09 13:28N 58°36' E 016°12'0 0.0
2017-Dec-09 12:58N 58°36' E 016°12'0 0.0
2017-Dec-09 12:25N 58°36' E 016°12'0 0.0
2017-Dec-09 11:58N 58°36' E 016°12'0 0.0
2017-Dec-09 11:28N 58°36' E 016°12'0 0.0
2017-Dec-09 10:58N 58°36' E 016°12'0 0.0
2017-Dec-09 10:28N 58°36' E 016°12'0 0.0
2017-Dec-09 09:58N 58°36' E 016°12'0 0.0
2017-Dec-09 09:28N 58°36' E 016°12'0 0.0
2017-Dec-09 08:58N 58°36' E 016°12'0 0.0
2017-Dec-09 08:28N 58°36' E 016°11'0 0.0
2017-Dec-09 07:58N 58°36' E 016°12'0 0.0
2017-Dec-09 07:28N 58°36' E 016°12'0 0.0
2017-Dec-09 06:58N 58°36' E 016°12'0 0.0
2017-Dec-09 06:28N 58°36' E 016°12'0 0.0
2017-Dec-09 05:58N 58°36' E 016°12'0 0.0
2017-Dec-09 05:28N 58°36' E 016°12'0 0.0
2017-Dec-09 04:58N 58°36' E 016°11'0 0.0
2017-Dec-09 04:28N 58°36' E 016°11'0 0.0
2017-Dec-09 03:58N 58°36' E 016°11'0 0.0
2017-Dec-09 03:28N 58°36' E 016°11'0 0.0
2017-Dec-09 02:58N 58°36' E 016°12'0 0.0
2017-Dec-09 02:28N 58°36' E 016°11'0 0.0
2017-Dec-09 01:58N 58°36' E 016°11'0 0.0
2017-Dec-09 01:28N 58°36' E 016°12'0 0.0
2017-Dec-09 00:58N 58°36' E 016°12'0 0.0
2017-Dec-09 00:28N 58°36' E 016°12'0 0.0
2017-Dec-08 23:58N 58°36' E 016°11'0 0.0
2017-Dec-08 23:28N 58°36' E 016°11'0 0.0
2017-Dec-08 22:58N 58°36' E 016°11'0 0.0
2017-Dec-08 22:28N 58°36' E 016°12'0 0.0
2017-Dec-08 21:58N 58°36' E 016°12'0 0.0
2017-Dec-08 21:28N 58°36' E 016°12'0 0.0
2017-Dec-08 20:58N 58°36' E 016°12'0 0.0
2017-Dec-08 20:28N 58°36' E 016°11'0 0.0
2017-Dec-08 19:58N 58°36' E 016°11'0 0.0
2017-Dec-08 19:28N 58°36' E 016°12'0 0.0
2017-Dec-08 18:58N 58°36' E 016°12'0 0.0
2017-Dec-08 18:28N 58°36' E 016°11'0 0.0
2017-Dec-08 17:58N 58°36' E 016°12'0 0.0
2017-Dec-08 17:28N 58°36' E 016°12'0 0.0
2017-Dec-08 16:52N 58°36' E 016°12'0 0.0
2017-Dec-08 16:28N 58°36' E 016°11'0 0.0
2017-Dec-08 15:58N 58°36' E 016°11'0 0.0
2017-Dec-08 15:28N 58°36' E 016°11'0 0.0
2017-Dec-08 14:58N 58°36' E 016°12'0 0.0
2017-Dec-08 14:28N 58°36' E 016°12'0 0.0
2017-Dec-08 13:58N 58°36' E 016°12'0 0.0
2017-Dec-08 13:28N 58°36' E 016°12'0 0.0
2017-Dec-08 12:58N 58°36' E 016°11'0 0.0
2017-Dec-08 12:28N 58°36' E 016°12'0 0.0
2017-Dec-08 11:58N 58°36' E 016°12'0 0.0
2017-Dec-08 11:28N 58°36' E 016°12'0 0.0
2017-Dec-08 10:58N 58°36' E 016°12'0 0.0
2017-Dec-08 10:28N 58°36' E 016°12'0 0.0
2017-Dec-08 09:58N 58°36' E 016°12'0 0.0
2017-Dec-08 09:28N 58°36' E 016°11'0 0.0
2017-Dec-08 08:58N 58°36' E 016°12'0 0.0
2017-Dec-08 08:28N 58°36' E 016°12'0 0.0
2017-Dec-08 07:58N 58°36' E 016°11'0 0.0
2017-Dec-08 07:28N 58°36' E 016°12'0 0.0
2017-Dec-08 06:58N 58°36' E 016°12'0 0.0
2017-Dec-08 06:30N 58°36' E 016°12'0 0.0
2017-Dec-08 06:00N 58°36' E 016°12'0 0.0
2017-Dec-08 05:30N 58°36' E 016°11'0 0.0
2017-Dec-08 05:00N 58°36' E 016°12'0 0.0
2017-Dec-08 04:30N 58°36' E 016°11'0 0.0
2017-Dec-08 04:00N 58°36' E 016°12'0 0.0
2017-Dec-08 03:30N 58°36' E 016°11'0 0.0
2017-Dec-08 03:00N 58°36' E 016°11'0 0.0
2017-Dec-08 02:30N 58°36' E 016°12'0 0.0
2017-Dec-08 02:00N 58°36' E 016°11'0 0.0
2017-Dec-08 01:30N 58°36' E 016°12'0 0.0
2017-Dec-08 01:00N 58°36' E 016°11'0 0.0
2017-Dec-08 00:30N 58°36' E 016°12'0 0.8
2017-Dec-08 00:00N 58°37' E 016°11'1 2.4
2017-Dec-07 23:31N 58°36' E 016°13'3 5.8
2017-Dec-07 23:00N 58°38' E 016°18'5 9.5
2017-Dec-07 22:30N 58°39' E 016°27'5 9.7
2017-Dec-07 22:00N 58°38' E 016°36'510.0
2017-Dec-07 21:30N 58°37' E 016°45'5 9.8
2017-Dec-07 21:00N 58°36' E 016°55'510.0
2017-Dec-07 20:30N 58°38' E 017°04'5 9.7
2017-Dec-07 20:00N 58°37' E 017°13'5 9.3
2017-Dec-07 19:30N 58°37' E 017°22'  
Track history (hours):
 
Tides and Currents Weather Stations Pressure Air Temp Water Temp Dewpoint Dewpoint Depression Visibility Wind Speed Wind Dir Waves Ship Positions

Birgit G.

Last reported at 2017-Dec-17 02:57 UTC. Time now 2017-Dec-17 16:01 UTC.
Position N 59°46' E 024°16'.

Length 89 m; draft 5.3 m.

Type: Ship. MMSI: 305502000.

Date/timePositionNaut miles runAvg speedWind from/ knotsBaromVisibWave heightAir tempDewpointWater temp
2017-Dec-17 02:57N 59°46' E 024°16'510.6
2017-Dec-17 02:30N 59°47' E 024°25'510.4
2017-Dec-17 02:00N 59°49' E 024°35'510.6
2017-Dec-17 01:30N 59°50' E 024°45'510.6
2017-Dec-17 01:00N 59°51' E 024°56'510.4
2017-Dec-17 00:30N 59°52' E 025°06'510.2
2017-Dec-17 00:00N 59°53' E 025°16'510.3
2017-Dec-16 23:30N 59°54' E 025°26'2410.2
2017-Dec-16 21:11N 59°59' E 026°12'210.0
2017-Dec-16 21:00N 59°59' E 026°15'510.1
2017-Dec-16 20:30N 60°00' E 026°25'510.1
2017-Dec-16 20:00N 60°01' E 026°35'510.1
2017-Dec-16 19:30N 60°01' E 026°45'510.0
2017-Dec-16 19:00N 60°00' E 026°55'5 9.7
2017-Dec-16 18:30N 60°00' E 027°05'510.1
2017-Dec-16 18:00N 60°03' E 027°14'5 9.9
2017-Dec-16 17:30N 60°05' E 027°22'5 9.9
2017-Dec-16 17:00N 60°08' E 027°30'5 9.8
2017-Dec-16 16:30N 60°10' E 027°39'5 9.6
2017-Dec-16 16:00N 60°12' E 027°48'510.2
2017-Dec-16 15:30N 60°11' E 027°59'510.2
2017-Dec-16 15:00N 60°09' E 028°08'510.1
2017-Dec-16 14:30N 60°07' E 028°18'510.3
2017-Dec-16 14:00N 60°04' E 028°26'510.0
2017-Dec-16 13:30N 60°03' E 028°36'510.2
2017-Dec-16 13:00N 60°03' E 028°46'510.2
2017-Dec-16 12:30N 60°03' E 028°56'1710.2
2017-Dec-16 10:51N 60°02' E 029°30'310.2
2017-Dec-16 10:30N 60°00' E 029°37'510.3
2017-Dec-16 10:00N 59°59' E 029°46'510.1
2017-Dec-16 09:30N 59°56' E 029°55'510.2
2017-Dec-16 09:00N 59°54' E 030°05'4 7.2
2017-Dec-16 08:30N 59°53' E 030°11'1 2.3
2017-Dec-16 08:00N 59°52' E 030°13'0 0.0
2017-Dec-16 07:30N 59°52' E 030°13'0 0.0
2017-Dec-16 07:00N 59°52' E 030°13'0 0.0
2017-Dec-16 06:30N 59°52' E 030°13'0 0.0
2017-Dec-16 06:00N 59°52' E 030°13'0 0.0
2017-Dec-16 05:30N 59°52' E 030°13'0 0.0
2017-Dec-16 05:00N 59°52' E 030°13'0 0.0
2017-Dec-16 04:30N 59°52' E 030°13'0 0.0
2017-Dec-16 04:00N 59°52' E 030°13'0 0.0
2017-Dec-16 03:30N 59°52' E 030°13'0 0.0
2017-Dec-16 03:00N 59°52' E 030°13'0 0.0
2017-Dec-16 02:30N 59°52' E 030°13'0 0.0
2017-Dec-16 02:00N 59°52' E 030°13'0 0.0
2017-Dec-16 01:30N 59°52' E 030°13'0 0.0
2017-Dec-16 01:00N 59°52' E 030°13'0 0.0
2017-Dec-16 00:30N 59°52' E 030°13'0 0.0
2017-Dec-16 00:00N 59°52' E 030°13'0 0.0
2017-Dec-15 23:30N 59°52' E 030°13'0 0.0
2017-Dec-15 23:00N 59°52' E 030°13'0 0.0
2017-Dec-15 22:30N 59°52' E 030°13'0 0.0
2017-Dec-15 22:00N 59°52' E 030°13'0 0.0
2017-Dec-15 21:30N 59°52' E 030°13'0 0.0
2017-Dec-15 21:00N 59°52' E 030°13'0 0.0
2017-Dec-15 20:30N 59°52' E 030°13'0 0.0
2017-Dec-15 20:00N 59°52' E 030°13'0 0.0
2017-Dec-15 19:30N 59°52' E 030°13'0 0.0
2017-Dec-15 19:00N 59°52' E 030°13'0 0.0
2017-Dec-15 18:30N 59°52' E 030°13'0 0.0
2017-Dec-15 18:00N 59°52' E 030°13'0 0.0
2017-Dec-15 17:30N 59°52' E 030°13'0 0.0
2017-Dec-15 17:00N 59°52' E 030°13'0 0.0
2017-Dec-15 16:30N 59°52' E 030°13'0 0.0
2017-Dec-15 16:00N 59°52' E 030°13'0 0.0
2017-Dec-15 15:30N 59°52' E 030°13'0 0.0
2017-Dec-15 15:00N 59°52' E 030°13'0 0.0
2017-Dec-15 14:30N 59°52' E 030°13'0 0.0
2017-Dec-15 14:00N 59°52' E 030°13'0 0.0
2017-Dec-15 13:30N 59°52' E 030°13'0 0.0
2017-Dec-15 13:00N 59°52' E 030°13'0 0.0
2017-Dec-15 12:30N 59°52' E 030°13'0 0.0
2017-Dec-15 12:00N 59°52' E 030°13'0 0.0
2017-Dec-15 11:30N 59°52' E 030°13'0 0.0
2017-Dec-15 11:00N 59°52' E 030°13'0 0.0
2017-Dec-15 10:30N 59°52' E 030°13'0 0.0
2017-Dec-15 10:00N 59°52' E 030°13'0 0.0
2017-Dec-15 09:30N 59°52' E 030°13'0 0.0
2017-Dec-15 09:00N 59°52' E 030°13'0 0.0
2017-Dec-15 08:30N 59°52' E 030°13'0 0.0
2017-Dec-15 08:00N 59°52' E 030°13'0 0.0
2017-Dec-15 07:30N 59°52' E 030°13'0 0.0
2017-Dec-15 07:00N 59°52' E 030°13'0 0.0
2017-Dec-15 06:30N 59°52' E 030°13'0 0.0
2017-Dec-15 06:00N 59°52' E 030°13'0 0.0
2017-Dec-15 05:30N 59°52' E 030°13'0 0.0
2017-Dec-15 05:00N 59°52' E 030°13'0 0.0
2017-Dec-15 04:30N 59°52' E 030°13'0 0.0
2017-Dec-15 04:00N 59°52' E 030°13'0 0.0
2017-Dec-15 02:30N 59°52' E 030°13'0 0.0
2017-Dec-15 01:00N 59°52' E 030°13'0 0.0
2017-Dec-15 00:30N 59°52' E 030°13'0 0.0
2017-Dec-14 18:31N 59°52' E 030°13'0 0.0
2017-Dec-14 18:00N 59°52' E 030°13'0 0.0
2017-Dec-14 17:30N 59°52' E 030°13'0 0.0
2017-Dec-14 17:00N 59°52' E 030°13'0 0.0
2017-Dec-14 16:30N 59°52' E 030°13'0 0.0
2017-Dec-14 16:00N 59°52' E 030°13'0 0.0
2017-Dec-14 15:00N 59°52' E 030°13'0 0.0
2017-Dec-14 14:30N 59°52' E 030°13'0 0.0
2017-Dec-14 14:00N 59°52' E 030°13'0 0.0
2017-Dec-14 13:30N 59°52' E 030°13'0 0.0
2017-Dec-14 13:00N 59°52' E 030°13'0 0.0
2017-Dec-14 12:30N 59°52' E 030°13'0 0.0
2017-Dec-14 12:00N 59°52' E 030°13'0 0.1
2017-Dec-14 11:30N 59°52' E 030°13'0 0.1
2017-Dec-14 11:00N 59°52' E 030°13'0 0.0
2017-Dec-14 10:30N 59°52' E 030°13'0 0.0
2017-Dec-14 10:00N 59°52' E 030°13'0 0.0
2017-Dec-14 09:30N 59°52' E 030°13'0 0.0
2017-Dec-14 09:00N 59°52' E 030°13'0 0.0
2017-Dec-14 08:30N 59°52' E 030°13'0 0.0
2017-Dec-14 08:00N 59°52' E 030°13'0 0.0
2017-Dec-14 07:30N 59°52' E 030°13'0 0.0
2017-Dec-14 07:00N 59°52' E 030°13'0 0.0
2017-Dec-14 06:30N 59°52' E 030°13'0 0.0
2017-Dec-14 06:00N 59°52' E 030°13'0 0.0
2017-Dec-14 05:30N 59°52' E 030°13'0 0.0
2017-Dec-14 05:00N 59°52' E 030°13'0 0.0
2017-Dec-14 04:30N 59°52' E 030°13'0 0.0
2017-Dec-14 04:00N 59°52' E 030°13'0 0.0
2017-Dec-14 03:31N 59°52' E 030°13'0 0.0
2017-Dec-14 03:00N 59°52' E 030°13'0 0.0
2017-Dec-14 02:30N 59°52' E 030°13'0 0.0
2017-Dec-14 02:00N 59°52' E 030°13'0 0.0
2017-Dec-14 01:30N 59°52' E 030°13'0 0.0
2017-Dec-14 01:00N 59°52' E 030°13'0 0.0
2017-Dec-14 00:30N 59°52' E 030°13'0 0.0
2017-Dec-14 00:00N 59°52' E 030°13'0 0.0
2017-Dec-13 23:30N 59°52' E 030°13'0 0.0
2017-Dec-13 23:00N 59°52' E 030°13'0 0.0
2017-Dec-13 22:30N 59°52' E 030°13'0 0.0
2017-Dec-13 22:00N 59°52' E 030°13'0 0.0
2017-Dec-13 21:30N 59°52' E 030°13'0 0.0
2017-Dec-13 21:00N 59°52' E 030°13'0 0.0
2017-Dec-13 20:30N 59°52' E 030°13'0 0.0
2017-Dec-13 20:01N 59°52' E 030°13'0 0.0
2017-Dec-13 19:30N 59°52' E 030°13'0 0.0
2017-Dec-13 19:00N 59°52' E 030°13'0 0.0
2017-Dec-13 18:30N 59°52' E 030°13'0 0.0
2017-Dec-13 18:00N 59°52' E 030°13'0 0.0
2017-Dec-13 17:30N 59°52' E 030°13'0 0.0
2017-Dec-13 17:00N 59°52' E 030°13'0 0.0
2017-Dec-13 16:30N 59°52' E 030°13'0 0.0
2017-Dec-13 16:00N 59°52' E 030°13'0 0.0
2017-Dec-13 15:30N 59°52' E 030°13'0 0.0
2017-Dec-13 15:00N 59°52' E 030°13'0 0.0
2017-Dec-13 14:30N 59°52' E 030°13'0 0.0
2017-Dec-13 14:00N 59°52' E 030°13'0 0.0
2017-Dec-13 13:30N 59°52' E 030°13'0 0.0
2017-Dec-13 13:00N 59°52' E 030°13'0 0.0
2017-Dec-13 12:30N 59°52' E 030°13'0 0.0
2017-Dec-13 12:00N 59°52' E 030°13'0 0.0
2017-Dec-13 11:30N 59°52' E 030°13'0 0.0
2017-Dec-13 11:00N 59°52' E 030°13'0 0.0
2017-Dec-13 10:30N 59°52' E 030°13'0 0.0
2017-Dec-13 10:00N 59°52' E 030°13'0 0.0
2017-Dec-13 09:30N 59°52' E 030°13'0 0.0
2017-Dec-13 09:00N 59°52' E 030°13'0 0.0
2017-Dec-13 08:30N 59°52' E 030°13'0 0.0
2017-Dec-13 08:00N 59°52' E 030°13'0 0.0
2017-Dec-13 07:30N 59°52' E 030°13'0 0.0
2017-Dec-13 07:00N 59°52' E 030°13'0 0.0
2017-Dec-13 06:30N 59°52' E 030°13'0 0.0
2017-Dec-13 06:00N 59°52' E 030°13'0 0.0
2017-Dec-13 05:30N 59°52' E 030°13'0 0.0
2017-Dec-13 05:00N 59°52' E 030°13'0 0.0
2017-Dec-13 04:30N 59°52' E 030°13'0 0.0
2017-Dec-13 04:00N 59°52' E 030°13'0 0.0
2017-Dec-13 03:30N 59°52' E 030°13'0 0.0
2017-Dec-13 03:00N 59°52' E 030°13'0 0.0
2017-Dec-13 02:30N 59°52' E 030°13'0 0.0
2017-Dec-13 02:00N 59°52' E 030°13'0 0.0
2017-Dec-13 01:30N 59°52' E 030°13'0 0.0
2017-Dec-13 01:00N 59°52' E 030°13'0 0.0
2017-Dec-13 00:30N 59°52' E 030°13'0 0.0
2017-Dec-13 00:00N 59°52' E 030°13'0 0.0
2017-Dec-12 23:30N 59°52' E 030°13'0 0.0
2017-Dec-12 23:00N 59°52' E 030°13'0 0.0
2017-Dec-12 22:30N 59°52' E 030°13'0 0.0
2017-Dec-12 22:00N 59°52' E 030°13'0 0.0
2017-Dec-12 21:30N 59°52' E 030°13'0 0.0
2017-Dec-12 21:00N 59°52' E 030°13'0 0.0
2017-Dec-12 20:30N 59°52' E 030°13'0 0.0
2017-Dec-12 20:00N 59°52' E 030°13'0 0.0
2017-Dec-12 19:30N 59°52' E 030°13'0 0.0
2017-Dec-12 19:00N 59°52' E 030°13'0 0.0
2017-Dec-12 18:30N 59°52' E 030°13'0 0.0
2017-Dec-12 18:00N 59°52' E 030°13'0 0.0
2017-Dec-12 17:30N 59°52' E 030°13'0 0.0
2017-Dec-12 17:00N 59°52' E 030°13'0 0.0
2017-Dec-12 16:30N 59°52' E 030°13'0 0.0
2017-Dec-12 16:00N 59°52' E 030°13'0 0.0
2017-Dec-12 15:30N 59°52' E 030°13'1 1.0
2017-Dec-12 15:00N 59°52' E 030°12'3 5.7
2017-Dec-12 14:30N 59°54' E 030°07'5 9.4
2017-Dec-12 14:00N 59°56' E 029°58'510.1
2017-Dec-12 13:30N 59°58' E 029°49'5 9.4
2017-Dec-12 13:00N 59°60' E 029°41'15 9.7
2017-Dec-12 11:25N 60°02' E 029°10'410.1
2017-Dec-12 11:00N 60°02' E 029°02'510.3
2017-Dec-12 10:30N 60°02' E 028°51'510.8
2017-Dec-12 10:00N 60°02' E 028°41'611.4
2017-Dec-12 09:30N 60°03' E 028°29'5 9.6
2017-Dec-12 09:00N 60°05' E 028°21'5 9.4
2017-Dec-12 08:30N 60°08' E 028°13'5 9.5
2017-Dec-12 08:01N 60°09' E 028°04'5 9.9
2017-Dec-12 07:30N 60°10' E 027°54'5 9.7
2017-Dec-12 07:00N 60°11' E 027°44'5 9.2
2017-Dec-12 06:30N 60°08' E 027°37'611.4
2017-Dec-12 06:00N 60°05' E 027°27'510.3
2017-Dec-12 05:31N 60°02' E 027°18'611.7
2017-Dec-12 05:00N 59°59' E 027°09'5 9.3
2017-Dec-12 04:31N 59°58' E 026°60'5 9.5
2017-Dec-12 04:00N 59°59' E 026°50'510.6
2017-Dec-12 03:30N 59°59' E 026°40'510.5
2017-Dec-12 03:00N 59°58' E 026°30'611.3
2017-Dec-12 02:30N 59°56' E 026°19'2511.0
2017-Dec-12 00:13N 59°49' E 025°31'311.1
2017-Dec-11 23:57N 59°48' E 025°26'511.2
2017-Dec-11 23:30N 59°47' E 025°16'611.3
2017-Dec-11 23:00N 59°45' E 025°05'612.3
2017-Dec-11 22:31N 59°43' E 024°54'611.6
2017-Dec-11 22:00N 59°42' E 024°42'5 9.6
2017-Dec-11 21:30N 59°40' E 024°33'612.4
2017-Dec-11 21:00N 59°35' E 024°26'510.1
2017-Dec-11 20:30N 59°31' E 024°31'3 5.2
2017-Dec-11 20:00N 59°29' E 024°35'0 0.1
2017-Dec-11 19:28N 59°29' E 024°35'0 0.0
2017-Dec-11 18:58N 59°29' E 024°35'0 0.1
2017-Dec-11 18:28N 59°29' E 024°35'0 0.0
2017-Dec-11 17:58N 59°29' E 024°35'0 0.0
2017-Dec-11 17:28N 59°29' E 024°35'1 1.3
2017-Dec-11 17:00N 59°29' E 024°34'5 9.6
2017-Dec-11 16:30N 59°30' E 024°25'510.9
2017-Dec-11 16:00N 59°30' E 024°14'510.6
2017-Dec-11 15:30N 59°30' E 024°04'18010.7
2017-Dec-10 22:41N 58°42' E 018°25'411.0
2017-Dec-10 22:21N 58°42' E 018°18'411.2
2017-Dec-10 22:00N 58°41' E 018°11'611.5
2017-Dec-10 21:30N 58°40' E 018°00'611.5
2017-Dec-10 20:58N 58°39' E 017°49'1311.4
2017-Dec-10 19:52N 58°37' E 017°25'411.4
2017-Dec-10 19:30N 58°37' E 017°17'611.2
2017-Dec-10 19:00N 58°38' E 017°06'611.0
2017-Dec-10 18:30N 58°36' E 016°56'611.5
2017-Dec-10 18:00N 58°37' E 016°45'510.9
2017-Dec-10 17:31N 58°38' E 016°35'510.9
2017-Dec-10 17:00N 58°39' E 016°24'510.0
2017-Dec-10 16:30N 58°37' E 016°15'2 3.7
2017-Dec-10 16:00N 58°37' E 016°12'0 0.7
2017-Dec-10 15:30N 58°36' E 016°12'0 0.0
2017-Dec-10 14:58N 58°36' E 016°12'0 0.0
2017-Dec-10 14:28N 58°36' E 016°12'0 0.0
2017-Dec-10 13:58N 58°36' E 016°12'0 0.0
2017-Dec-10 13:28N 58°36' E 016°12'0 0.0
2017-Dec-10 12:58N 58°36' E 016°12'0 0.1
2017-Dec-10 12:28N 58°36' E 016°12'0 0.1
2017-Dec-10 11:58N 58°36' E 016°12'0 0.0
2017-Dec-10 11:28N 58°36' E 016°12'0 0.0
2017-Dec-10 10:58N 58°36' E 016°12'0 0.0
2017-Dec-10 10:28N 58°36' E 016°12'0 0.0
2017-Dec-10 09:58N 58°36' E 016°12'0 0.0
2017-Dec-10 09:28N 58°36' E 016°12'0 0.0
2017-Dec-10 08:58N 58°36' E 016°12'0 0.0
2017-Dec-10 08:28N 58°36' E 016°12'0 0.0
2017-Dec-10 07:58N 58°36' E 016°11'0 0.0
2017-Dec-10 07:28N 58°36' E 016°11'0 0.0
2017-Dec-10 06:58N 58°36' E 016°11'0 0.0
2017-Dec-10 06:28N 58°36' E 016°12'0 0.0
2017-Dec-10 05:58N 58°36' E 016°12'0 0.0
2017-Dec-10 05:28N 58°36' E 016°12'0 0.0
2017-Dec-10 04:58N 58°36' E 016°11'0 0.0
2017-Dec-10 04:28N 58°36' E 016°11'0 0.0
2017-Dec-10 03:58N 58°36' E 016°12'0 0.0
2017-Dec-10 03:28N 58°36' E 016°12'0 0.0
2017-Dec-10 02:58N 58°36' E 016°11'0 0.0
2017-Dec-10 02:28N 58°36' E 016°12'0 0.0
2017-Dec-10 01:58N 58°36' E 016°12'0 0.0
2017-Dec-10 01:28N 58°36' E 016°12'0 0.0
2017-Dec-10 00:58N 58°36' E 016°12'0 0.0
2017-Dec-10 00:28N 58°36' E 016°12'0 0.0
2017-Dec-09 23:58N 58°36' E 016°11'0 0.0
2017-Dec-09 23:28N 58°36' E 016°12'0 0.0
2017-Dec-09 22:58N 58°36' E 016°12'0 0.0
2017-Dec-09 22:28N 58°36' E 016°12'0 0.0
2017-Dec-09 21:58N 58°36' E 016°12'0 0.0
2017-Dec-09 21:28N 58°36' E 016°12'0 0.0
2017-Dec-09 20:58N 58°36' E 016°12'0 0.0
2017-Dec-09 20:28N 58°36' E 016°12'0 0.0
2017-Dec-09 19:58N 58°36' E 016°11'0 0.0
2017-Dec-09 19:28N 58°36' E 016°11'0 0.0
2017-Dec-09 18:58N 58°36' E 016°12'0 0.0
2017-Dec-09 18:28N 58°36' E 016°11'0 0.0
2017-Dec-09 17:58N 58°36' E 016°12'0 0.0
2017-Dec-09 17:28N 58°36' E 016°12'0 0.0
2017-Dec-09 16:55N 58°36' E 016°11'0 0.0
2017-Dec-09 16:28N 58°36' E 016°11'0 0.0
2017-Dec-09 15:58N 58°36' E 016°11'0 0.0
2017-Dec-09 15:28N 58°36' E 016°11'0 0.0
2017-Dec-09 14:58N 58°36' E 016°12'0 0.0
2017-Dec-09 14:28N 58°36' E 016°12'0 0.0
2017-Dec-09 13:58N 58°36' E 016°12'0 0.0
2017-Dec-09 13:28N 58°36' E 016°12'0 0.0
2017-Dec-09 12:58N 58°36' E 016°12'0 0.0
2017-Dec-09 12:25N 58°36' E 016°12'0 0.0
2017-Dec-09 11:58N 58°36' E 016°12'0 0.0
2017-Dec-09 11:28N 58°36' E 016°12'0 0.0
2017-Dec-09 10:58N 58°36' E 016°12'0 0.0
2017-Dec-09 10:28N 58°36' E 016°12'0 0.0
2017-Dec-09 09:58N 58°36' E 016°12'0 0.0
2017-Dec-09 09:28N 58°36' E 016°12'0 0.0
2017-Dec-09 08:58N 58°36' E 016°12'0 0.0
2017-Dec-09 08:28N 58°36' E 016°11'0 0.0
2017-Dec-09 07:58N 58°36' E 016°12'0 0.0
2017-Dec-09 07:28N 58°36' E 016°12'0 0.0
2017-Dec-09 06:58N 58°36' E 016°12'0 0.0
2017-Dec-09 06:28N 58°36' E 016°12'0 0.0
2017-Dec-09 05:58N 58°36' E 016°12'0 0.0
2017-Dec-09 05:28N 58°36' E 016°12'0 0.0
2017-Dec-09 04:58N 58°36' E 016°11'0 0.0
2017-Dec-09 04:28N 58°36' E 016°11'0 0.0
2017-Dec-09 03:58N 58°36' E 016°11'0 0.0
2017-Dec-09 03:28N 58°36' E 016°11'0 0.0
2017-Dec-09 02:58N 58°36' E 016°12'0 0.0
2017-Dec-09 02:28N 58°36' E 016°11'0 0.0
2017-Dec-09 01:58N 58°36' E 016°11'0 0.0
2017-Dec-09 01:28N 58°36' E 016°12'0 0.0
2017-Dec-09 00:58N 58°36' E 016°12'0 0.0
2017-Dec-09 00:28N 58°36' E 016°12'0 0.0
2017-Dec-08 23:58N 58°36' E 016°11'0 0.0
2017-Dec-08 23:28N 58°36' E 016°11'0 0.0
2017-Dec-08 22:58N 58°36' E 016°11'0 0.0
2017-Dec-08 22:28N 58°36' E 016°12'0 0.0
2017-Dec-08 21:58N 58°36' E 016°12'0 0.0
2017-Dec-08 21:28N 58°36' E 016°12'0 0.0
2017-Dec-08 20:58N 58°36' E 016°12'0 0.0
2017-Dec-08 20:28N 58°36' E 016°11'0 0.0
2017-Dec-08 19:58N 58°36' E 016°11'0 0.0
2017-Dec-08 19:28N 58°36' E 016°12'0 0.0
2017-Dec-08 18:58N 58°36' E 016°12'0 0.0
2017-Dec-08 18:28N 58°36' E 016°11'0 0.0
2017-Dec-08 17:58N 58°36' E 016°12'0 0.0
2017-Dec-08 17:28N 58°36' E 016°12'0 0.0
2017-Dec-08 16:52N 58°36' E 016°12'0 0.0
2017-Dec-08 16:28N 58°36' E 016°11'0 0.0
2017-Dec-08 15:58N 58°36' E 016°11'0 0.0
2017-Dec-08 15:28N 58°36' E 016°11'0 0.0
2017-Dec-08 14:58N 58°36' E 016°12'0 0.0
2017-Dec-08 14:28N 58°36' E 016°12'0 0.0
2017-Dec-08 13:58N 58°36' E 016°12'0 0.0
2017-Dec-08 13:28N 58°36' E 016°12'0 0.0
2017-Dec-08 12:58N 58°36' E 016°11'0 0.0
2017-Dec-08 12:28N 58°36' E 016°12'0 0.0
2017-Dec-08 11:58N 58°36' E 016°12'0 0.0
2017-Dec-08 11:28N 58°36' E 016°12'0 0.0
2017-Dec-08 10:58N 58°36' E 016°12'0 0.0
2017-Dec-08 10:28N 58°36' E 016°12'0 0.0
2017-Dec-08 09:58N 58°36' E 016°12'0 0.0
2017-Dec-08 09:28N 58°36' E 016°11'0 0.0
2017-Dec-08 08:58N 58°36' E 016°12'0 0.0
2017-Dec-08 08:28N 58°36' E 016°12'0 0.0
2017-Dec-08 07:58N 58°36' E 016°11'0 0.0
2017-Dec-08 07:28N 58°36' E 016°12'0 0.0
2017-Dec-08 06:58N 58°36' E 016°12'0 0.0
2017-Dec-08 06:30N 58°36' E 016°12'0 0.0
2017-Dec-08 06:00N 58°36' E 016°12'0 0.0
2017-Dec-08 05:30N 58°36' E 016°11'0 0.0
2017-Dec-08 05:00N 58°36' E 016°12'0 0.0
2017-Dec-08 04:30N 58°36' E 016°11'0 0.0
2017-Dec-08 04:00N 58°36' E 016°12'0 0.0
2017-Dec-08 03:30N 58°36' E 016°11'0 0.0
2017-Dec-08 03:00N 58°36' E 016°11'0 0.0
2017-Dec-08 02:30N 58°36' E 016°12'0 0.0
2017-Dec-08 02:00N 58°36' E 016°11'0 0.0
2017-Dec-08 01:30N 58°36' E 016°12'0 0.0
2017-Dec-08 01:00N 58°36' E 016°11'0 0.0
2017-Dec-08 00:30N 58°36' E 016°12'0 0.8
2017-Dec-08 00:00N 58°37' E 016°11'1 2.4
2017-Dec-07 23:31N 58°36' E 016°13'3 5.8
2017-Dec-07 23:00N 58°38' E 016°18'5 9.5
2017-Dec-07 22:30N 58°39' E 016°27'5 9.7
2017-Dec-07 22:00N 58°38' E 016°36'510.0
2017-Dec-07 21:30N 58°37' E 016°45'5 9.8
2017-Dec-07 21:00N 58°36' E 016°55'510.0
2017-Dec-07 20:30N 58°38' E 017°04'5 9.7
2017-Dec-07 20:00N 58°37' E 017°13'5 9.3
2017-Dec-07 19:30N 58°37' E 017°22'  

Dump ship's entire track history